Portoviejo, Ecuador

8:08 AM ECT on August 28, 2015 (GMT -0500)
Mar Azul | | Change Station
CLOSE
Current Station
Personal Weather Station
Location: Crucita, MANABI
Elevation: 40 ft
Nearby Weather Stations

Elev 40 ft 0.88 °S, 80.55 °W | Updated 60 seconds ago

Overcast
Overcast
76.0 °F
Feels Like 76 °F
N
3.0
Wind Variable Wind from SW
Gusts 5.0 mph

Today
High -- | Low -- °F
--% Chance of Precip.
Yesterday
High -- | Low -- °F
Precip. -- in
6:20 AM 6:25 PM
Waxing Gibbous, 98% visible
Pressure 29.89 in
Visibility 6.2 miles
Clouds Overcast 1600 ft
Heat Index 76 °F
Dew Point 72 °F
Humidity 86%
Rainfall 0.00 in
Snow Depth Not available.
UV 1 out of 12
Pollen Not available.
Air Quality Not available.
Flu Activity Not available.
METAR SEMT 281300Z 19010KT 9999 OVC016 24/22 Q1012 RMK A29
Pressure 29.89 in
Visibility 6.2 miles
Clouds Overcast 1600 ft
Heat Index 76 °F
Dew Point 72 °F
Humidity 86%
Rainfall 0.00 in
Snow Depth Not available.
UV 1 out of 12
Pollen Not available.
Air Quality Not available.
Flu Activity Not available.
METAR SEMT 281300Z 19010KT 9999 OVC016 24/22 Q1012 RMK A29

10-Day Weather Forecast

×

Almanac

Astronomy

Aug. 28, 2015 Rise Set
Actual Time
Civil Twilight
Nautical Twilight
Astronomical Twilight
Moon
Length of Visible Light
Length of Day
Tomorrow will be .
, % of the Moon is Illuminated

Today's Extremes

Country Highs Country Lows

Community

WunderPhotos

Upload Photos

1,850,375 photos uploaded!

WunderBlogs® & News

Nearby

Air Quality

  Air Quality AQ Index Pollutant
Not available.

Snow Depth

Station Depth Elevation

Earthquake Activity

City Distance Mag. Time & Date
Minimum magnitude displayed is 2.5.

Coastal Water Temperatures

Place Temperature

Stations

Nearby Weather Stations

Station Location Temp. Windchill Dew Point Humidity Wind Precip. Elev Updated Type